sensor_id;sensor_type;location;lat;lon;timestamp;temperature;humidity
52799;DHT22;38667;42.872;74.622;2023-12-20T00:00:38;2.50;82.30
52799;DHT22;38667;42.872;74.622;2023-12-20T00:03:04;2.60;83.60
52799;DHT22;38667;42.872;74.622;2023-12-20T00:05:32;2.60;82.70
52799;DHT22;38667;42.872;74.622;2023-12-20T00:07:59;2.60;82.90
52799;DHT22;38667;42.872;74.622;2023-12-20T00:10:25;2.60;82.90
52799;DHT22;38667;42.872;74.622;2023-12-20T00:12:51;2.60;83.20
52799;DHT22;38667;42.872;74.622;2023-12-20T00:15:18;2.60;83.30
52799;DHT22;38667;42.872;74.622;2023-12-20T00:17:44;2.50;83.40
52799;DHT22;38667;42.872;74.622;2023-12-20T00:20:11;2.60;82.30
52799;DHT22;38667;42.872;74.622;2023-12-20T00:22:39;2.60;82.40
52799;DHT22;38667;42.872;74.622;2023-12-20T00:25:06;2.50;83.20
52799;DHT22;38667;42.872;74.622;2023-12-20T00:27:32;2.60;82.80
52799;DHT22;38667;42.872;74.622;2023-12-20T00:29:58;2.70;82.00
52799;DHT22;38667;42.872;74.622;2023-12-20T00:32:25;2.60;81.90
52799;DHT22;38667;42.872;74.622;2023-12-20T00:34:51;2.50;82.60
52799;DHT22;38667;42.872;74.622;2023-12-20T00:37:17;2.50;82.90
52799;DHT22;38667;42.872;74.622;2023-12-20T00:39:45;2.50;83.10
52799;DHT22;38667;42.872;74.622;2023-12-20T00:42:12;2.40;82.80
52799;DHT22;38667;42.872;74.622;2023-12-20T00:44:38;2.50;82.70
52799;DHT22;38667;42.872;74.622;2023-12-20T00:47:05;2.50;82.60
52799;DHT22;38667;42.872;74.622;2023-12-20T00:49:31;2.50;82.60
52799;DHT22;38667;42.872;74.622;2023-12-20T00:51:57;2.40;83.60
52799;DHT22;38667;42.872;74.622;2023-12-20T00:54:24;2.40;83.90
52799;DHT22;38667;42.872;74.622;2023-12-20T00:56:51;2.40;82.80
52799;DHT22;38667;42.872;74.622;2023-12-20T00:59:18;2.30;83.40
52799;DHT22;38667;42.872;74.622;2023-12-20T01:01:44;2.30;83.70
52799;DHT22;38667;42.872;74.622;2023-12-20T01:04:10;2.30;83.90
52799;DHT22;38667;42.872;74.622;2023-12-20T01:06:37;2.40;83.70
52799;DHT22;38667;42.872;74.622;2023-12-20T01:09:03;2.40;83.10
52799;DHT22;38667;42.872;74.622;2023-12-20T01:11:29;2.40;83.20
52799;DHT22;38667;42.872;74.622;2023-12-20T01:13:58;2.40;83.40
52799;DHT22;38667;42.872;74.622;2023-12-20T01:16:25;2.40;83.20
52799;DHT22;38667;42.872;74.622;2023-12-20T01:18:51;2.30;83.20
52799;DHT22;38667;42.872;74.622;2023-12-20T01:21:17;2.30;83.80
52799;DHT22;38667;42.872;74.622;2023-12-20T01:23:44;2.30;84.20
52799;DHT22;38667;42.872;74.622;2023-12-20T01:26:10;2.30;84.30
52799;DHT22;38667;42.872;74.622;2023-12-20T01:28:36;2.30;85.00
52799;DHT22;38667;42.872;74.622;2023-12-20T01:31:05;2.30;84.20
52799;DHT22;38667;42.872;74.622;2023-12-20T01:33:32;2.30;84.60
52799;DHT22;38667;42.872;74.622;2023-12-20T01:35:58;2.30;84.50
52799;DHT22;38667;42.872;74.622;2023-12-20T01:38:24;2.30;84.80
52799;DHT22;38667;42.872;74.622;2023-12-20T01:40:50;2.30;83.70
52799;DHT22;38667;42.872;74.622;2023-12-20T01:43:17;2.30;83.80
52799;DHT22;38667;42.872;74.622;2023-12-20T01:45:43;2.30;84.10
52799;DHT22;38667;42.872;74.622;2023-12-20T01:48:11;2.40;84.20
52799;DHT22;38667;42.872;74.622;2023-12-20T01:50:38;2.40;83.70
52799;DHT22;38667;42.872;74.622;2023-12-20T01:53:08;2.40;83.10
52799;DHT22;38667;42.872;74.622;2023-12-20T01:55:36;2.50;82.40
52799;DHT22;38667;42.872;74.622;2023-12-20T01:58:05;2.40;82.50
52799;DHT22;38667;42.872;74.622;2023-12-20T02:00:31;2.40;82.60
52799;DHT22;38667;42.872;74.622;2023-12-20T02:03:01;2.30;83.10
52799;DHT22;38667;42.872;74.622;2023-12-20T02:05:29;2.30;83.40
52799;DHT22;38667;42.872;74.622;2023-12-20T02:07:56;2.30;83.50
52799;DHT22;38667;42.872;74.622;2023-12-20T02:10:22;2.30;83.90
52799;DHT22;38667;42.872;74.622;2023-12-20T02:12:49;2.40;84.30
52799;DHT22;38667;42.872;74.622;2023-12-20T02:15:15;2.40;83.60
52799;DHT22;38667;42.872;74.622;2023-12-20T02:17:42;2.40;82.80
52799;DHT22;38667;42.872;74.622;2023-12-20T02:20:09;2.40;83.00
52799;DHT22;38667;42.872;74.622;2023-12-20T02:22:36;2.40;83.40
52799;DHT22;38667;42.872;74.622;2023-12-20T02:25:03;2.40;83.30
52799;DHT22;38667;42.872;74.622;2023-12-20T02:27:30;2.40;82.80
52799;DHT22;38667;42.872;74.622;2023-12-20T02:29:56;2.40;82.70
52799;DHT22;38667;42.872;74.622;2023-12-20T02:32:24;2.40;82.80
52799;DHT22;38667;42.872;74.622;2023-12-20T02:34:51;2.40;82.50
52799;DHT22;38667;42.872;74.622;2023-12-20T02:37:17;2.40;82.60
52799;DHT22;38667;42.872;74.622;2023-12-20T02:39:46;2.40;82.90
52799;DHT22;38667;42.872;74.622;2023-12-20T02:42:12;2.50;82.80
52799;DHT22;38667;42.872;74.622;2023-12-20T02:44:38;2.50;82.80
52799;DHT22;38667;42.872;74.622;2023-12-20T02:47:05;2.50;83.00
52799;DHT22;38667;42.872;74.622;2023-12-20T02:49:31;2.40;82.40
52799;DHT22;38667;42.872;74.622;2023-12-20T02:51:57;2.40;82.80
52799;DHT22;38667;42.872;74.622;2023-12-20T02:54:24;2.40;82.90
52799;DHT22;38667;42.872;74.622;2023-12-20T02:56:52;2.30;82.90
52799;DHT22;38667;42.872;74.622;2023-12-20T02:59:18;2.30;83.00
52799;DHT22;38667;42.872;74.622;2023-12-20T03:01:45;2.20;83.40
52799;DHT22;38667;42.872;74.622;2023-12-20T03:04:12;2.20;83.80
52799;DHT22;38667;42.872;74.622;2023-12-20T03:06:39;2.20;83.60
52799;DHT22;38667;42.872;74.622;2023-12-20T03:09:05;2.10;82.50
52799;DHT22;38667;42.872;74.622;2023-12-20T03:11:31;2.00;82.20
52799;DHT22;38667;42.872;74.622;2023-12-20T03:13:59;1.90;82.50
52799;DHT22;38667;42.872;74.622;2023-12-20T03:16:25;1.90;82.70
52799;DHT22;38667;42.872;74.622;2023-12-20T03:18:52;1.90;83.10
52799;DHT22;38667;42.872;74.622;2023-12-20T03:21:18;1.90;82.90
52799;DHT22;38667;42.872;74.622;2023-12-20T03:23:45;2.00;82.50
52799;DHT22;38667;42.872;74.622;2023-12-20T03:26:12;1.90;83.10
52799;DHT22;38667;42.872;74.622;2023-12-20T03:28:38;2.00;82.90
52799;DHT22;38667;42.872;74.622;2023-12-20T03:31:06;2.00;82.60
52799;DHT22;38667;42.872;74.622;2023-12-20T03:33:32;2.00;82.50
52799;DHT22;38667;42.872;74.622;2023-12-20T03:35:59;2.00;82.20
52799;DHT22;38667;42.872;74.622;2023-12-20T03:38:25;1.90;82.50
52799;DHT22;38667;42.872;74.622;2023-12-20T03:40:51;1.90;82.90
52799;DHT22;38667;42.872;74.622;2023-12-20T03:43:18;1.90;83.40
52799;DHT22;38667;42.872;74.622;2023-12-20T03:45:44;2.10;83.60
52799;DHT22;38667;42.872;74.622;2023-12-20T03:48:12;2.10;83.00
52799;DHT22;38667;42.872;74.622;2023-12-20T03:50:39;2.20;82.80
52799;DHT22;38667;42.872;74.622;2023-12-20T03:53:05;2.20;83.00
52799;DHT22;38667;42.872;74.622;2023-12-20T03:55:31;2.30;82.20
52799;DHT22;38667;42.872;74.622;2023-12-20T03:57:58;2.40;82.00
52799;DHT22;38667;42.872;74.622;2023-12-20T04:00:24;2.50;82.30
52799;DHT22;38667;42.872;74.622;2023-12-20T04:02:50;2.50;81.80
52799;DHT22;38667;42.872;74.622;2023-12-20T04:05:18;2.60;81.20
52799;DHT22;38667;42.872;74.622;2023-12-20T04:07:45;2.70;80.70
52799;DHT22;38667;42.872;74.622;2023-12-20T04:10:11;2.70;80.90
52799;DHT22;38667;42.872;74.622;2023-12-20T04:12:37;2.80;80.20
52799;DHT22;38667;42.872;74.622;2023-12-20T04:15:05;2.80;80.30
52799;DHT22;38667;42.872;74.622;2023-12-20T04:17:31;3.00;80.40
52799;DHT22;38667;42.872;74.622;2023-12-20T04:19:57;3.00;79.60
52799;DHT22;38667;42.872;74.622;2023-12-20T04:22:26;3.10;79.30
52799;DHT22;38667;42.872;74.622;2023-12-20T04:24:52;3.10;78.60
52799;DHT22;38667;42.872;74.622;2023-12-20T04:27:19;3.20;78.10
52799;DHT22;38667;42.872;74.622;2023-12-20T04:29:45;3.20;77.60
52799;DHT22;38667;42.872;74.622;2023-12-20T04:32:11;3.20;77.20
52799;DHT22;38667;42.872;74.622;2023-12-20T04:34:37;3.30;76.90
52799;DHT22;38667;42.872;74.622;2023-12-20T04:37:04;3.30;76.90
52799;DHT22;38667;42.872;74.622;2023-12-20T04:39:33;3.40;77.20
52799;DHT22;38667;42.872;74.622;2023-12-20T04:41:59;3.40;76.60
52799;DHT22;38667;42.872;74.622;2023-12-20T04:44:25;3.40;75.20
52799;DHT22;38667;42.872;74.622;2023-12-20T04:46:52;3.40;75.10
52799;DHT22;38667;42.872;74.622;2023-12-20T04:49:18;3.50;74.90
52799;DHT22;38667;42.872;74.622;2023-12-20T04:51:44;3.60;74.80
52799;DHT22;38667;42.872;74.622;2023-12-20T04:54:11;3.60;74.50
52799;DHT22;38667;42.872;74.622;2023-12-20T04:56:39;3.80;74.50
52799;DHT22;38667;42.872;74.622;2023-12-20T04:59:05;3.90;74.40
52799;DHT22;38667;42.872;74.622;2023-12-20T05:01:31;3.90;73.30
52799;DHT22;38667;42.872;74.622;2023-12-20T05:03:58;4.00;73.10
52799;DHT22;38667;42.872;74.622;2023-12-20T05:06:24;4.00;72.50
52799;DHT22;38667;42.872;74.622;2023-12-20T05:08:50;4.10;72.40
52799;DHT22;38667;42.872;74.622;2023-12-20T05:11:17;4.10;72.10
52799;DHT22;38667;42.872;74.622;2023-12-20T05:13:45;4.10;72.00
52799;DHT22;38667;42.872;74.622;2023-12-20T05:16:11;4.20;72.50
52799;DHT22;38667;42.872;74.622;2023-12-20T05:18:37;4.10;72.20
52799;DHT22;38667;42.872;74.622;2023-12-20T05:21:04;4.10;72.80
52799;DHT22;38667;42.872;74.622;2023-12-20T05:23:30;4.10;74.30
52799;DHT22;38667;42.872;74.622;2023-12-20T05:25:57;4.10;75.00
52799;DHT22;38667;42.872;74.622;2023-12-20T05:28:23;4.10;75.40
52799;DHT22;38667;42.872;74.622;2023-12-20T05:30:51;4.00;75.50
52799;DHT22;38667;42.872;74.622;2023-12-20T05:33:17;4.00;76.90
52799;DHT22;38667;42.872;74.622;2023-12-20T05:35:44;3.80;77.40
52799;DHT22;38667;42.872;74.622;2023-12-20T05:38:10;3.70;78.50
52799;DHT22;38667;42.872;74.622;2023-12-20T05:40:36;3.60;79.40
52799;DHT22;38667;42.872;74.622;2023-12-20T05:43:03;3.60;80.70
52799;DHT22;38667;42.872;74.622;2023-12-20T05:45:29;3.50;81.30
52799;DHT22;38667;42.872;74.622;2023-12-20T05:47:57;3.40;82.20
52799;DHT22;38667;42.872;74.622;2023-12-20T05:50:24;3.30;83.20
52799;DHT22;38667;42.872;74.622;2023-12-20T05:52:50;3.20;84.20
52799;DHT22;38667;42.872;74.622;2023-12-20T05:55:16;3.20;85.00
52799;DHT22;38667;42.872;74.622;2023-12-20T05:57:43;3.20;85.30
52799;DHT22;38667;42.872;74.622;2023-12-20T06:00:10;3.00;85.90
52799;DHT22;38667;42.872;74.622;2023-12-20T06:02:37;3.00;86.50
52799;DHT22;38667;42.872;74.622;2023-12-20T06:05:05;2.90;87.20
52799;DHT22;38667;42.872;74.622;2023-12-20T06:07:32;2.80;88.10
52799;DHT22;38667;42.872;74.622;2023-12-20T06:09:58;2.70;88.70
52799;DHT22;38667;42.872;74.622;2023-12-20T06:12:24;2.70;89.20
52799;DHT22;38667;42.872;74.622;2023-12-20T06:14:51;2.60;90.00
52799;DHT22;38667;42.872;74.622;2023-12-20T06:17:17;2.60;90.30
52799;DHT22;38667;42.872;74.622;2023-12-20T06:19:43;2.40;90.40
52799;DHT22;38667;42.872;74.622;2023-12-20T06:22:11;2.30;91.40
52799;DHT22;38667;42.872;74.622;2023-12-20T06:24:38;2.20;92.70
52799;DHT22;38667;42.872;74.622;2023-12-20T06:27:04;2.20;94.40
52799;DHT22;38667;42.872;74.622;2023-12-20T06:29:30;2.10;96.10
52799;DHT22;38667;42.872;74.622;2023-12-20T06:31:57;2.00;96.80
52799;DHT22;38667;42.872;74.622;2023-12-20T06:34:23;1.90;97.80
52799;DHT22;38667;42.872;74.622;2023-12-20T06:36:49;2.00;98.60
52799;DHT22;38667;42.872;74.622;2023-12-20T06:39:17;2.00;99.10
52799;DHT22;38667;42.872;74.622;2023-12-20T06:41:44;2.00;99.20
52799;DHT22;38667;42.872;74.622;2023-12-20T06:44:10;1.90;99.50
52799;DHT22;38667;42.872;74.622;2023-12-20T06:46:36;1.90;99.00
52799;DHT22;38667;42.872;74.622;2023-12-20T06:49:03;1.80;98.70
52799;DHT22;38667;42.872;74.622;2023-12-20T06:51:29;1.70;99.30
52799;DHT22;38667;42.872;74.622;2023-12-20T06:53:55;1.70;99.30
52799;DHT22;38667;42.872;74.622;2023-12-20T06:56:23;1.60;99.70
52799;DHT22;38667;42.872;74.622;2023-12-20T06:58:49;1.60;99.60
52799;DHT22;38667;42.872;74.622;2023-12-20T07:01:16;1.60;99.90
52799;DHT22;38667;42.872;74.622;2023-12-20T07:03:42;1.50;99.90
52799;DHT22;38667;42.872;74.622;2023-12-20T07:06:09;1.50;99.90
52799;DHT22;38667;42.872;74.622;2023-12-20T07:08:35;1.50;99.90
52799;DHT22;38667;42.872;74.622;2023-12-20T07:11:02;1.50;99.90
52799;DHT22;38667;42.872;74.622;2023-12-20T07:13:30;1.50;99.90
52799;DHT22;38667;42.872;74.622;2023-12-20T07:15:56;1.50;99.90
52799;DHT22;38667;42.872;74.622;2023-12-20T07:18:22;1.50;99.90
52799;DHT22;38667;42.872;74.622;2023-12-20T07:20:49;1.50;99.90
52799;DHT22;38667;42.872;74.622;2023-12-20T07:23:15;1.50;99.90
52799;DHT22;38667;42.872;74.622;2023-12-20T07:25:42;1.50;99.90
52799;DHT22;38667;42.872;74.622;2023-12-20T07:28:08;1.40;99.90
52799;DHT22;38667;42.872;74.622;2023-12-20T07:30:36;1.40;99.90
52799;DHT22;38667;42.872;74.622;2023-12-20T07:33:02;1.40;99.90
52799;DHT22;38667;42.872;74.622;2023-12-20T07:35:29;1.40;99.90
52799;DHT22;38667;42.872;74.622;2023-12-20T07:37:55;1.30;99.90
52799;DHT22;38667;42.872;74.622;2023-12-20T07:40:21;1.40;99.90
52799;DHT22;38667;42.872;74.622;2023-12-20T07:42:48;1.30;99.90
52799;DHT22;38667;42.872;74.622;2023-12-20T07:45:14;1.40;99.90
52799;DHT22;38667;42.872;74.622;2023-12-20T07:47:42;1.30;99.90
52799;DHT22;38667;42.872;74.622;2023-12-20T07:50:09;1.30;99.90
52799;DHT22;38667;42.872;74.622;2023-12-20T07:52:35;1.30;99.90
52799;DHT22;38667;42.872;74.622;2023-12-20T07:55:02;1.30;99.90
52799;DHT22;38667;42.872;74.622;2023-12-20T07:57:29;1.30;99.90
52799;DHT22;38667;42.872;74.622;2023-12-20T07:59:55;1.30;99.90
52799;DHT22;38667;42.872;74.622;2023-12-20T08:02:22;1.30;99.90
52799;DHT22;38667;42.872;74.622;2023-12-20T08:04:50;1.30;99.90
52799;DHT22;38667;42.872;74.622;2023-12-20T08:07:16;1.30;99.90
52799;DHT22;38667;42.872;74.622;2023-12-20T08:09:42;1.30;99.90
52799;DHT22;38667;42.872;74.622;2023-12-20T08:12:09;1.30;99.90
52799;DHT22;38667;42.872;74.622;2023-12-20T08:14:35;1.30;99.90
52799;DHT22;38667;42.872;74.622;2023-12-20T08:17:01;1.30;99.90
52799;DHT22;38667;42.872;74.622;2023-12-20T08:19:28;1.30;99.90
52799;DHT22;38667;42.872;74.622;2023-12-20T08:21:56;1.30;99.90
52799;DHT22;38667;42.872;74.622;2023-12-20T08:24:23;1.20;99.90
52799;DHT22;38667;42.872;74.622;2023-12-20T08:26:49;1.30;99.90
52799;DHT22;38667;42.872;74.622;2023-12-20T08:29:15;1.30;99.90
52799;DHT22;38667;42.872;74.622;2023-12-20T08:31:42;1.40;99.90
52799;DHT22;38667;42.872;74.622;2023-12-20T08:34:08;1.40;99.90
52799;DHT22;38667;42.872;74.622;2023-12-20T08:36:34;1.40;99.90
52799;DHT22;38667;42.872;74.622;2023-12-20T08:39:02;1.40;99.90
52799;DHT22;38667;42.872;74.622;2023-12-20T08:41:29;1.40;99.90
52799;DHT22;38667;42.872;74.622;2023-12-20T08:43:55;1.50;99.90
52799;DHT22;38667;42.872;74.622;2023-12-20T08:46:21;1.60;99.90
52799;DHT22;38667;42.872;74.622;2023-12-20T08:48:48;1.70;99.90
52799;DHT22;38667;42.872;74.622;2023-12-20T08:51:14;1.80;99.90
52799;DHT22;38667;42.872;74.622;2023-12-20T08:53:40;1.80;99.80
52799;DHT22;38667;42.872;74.622;2023-12-20T08:56:08;1.90;99.20
52799;DHT22;38667;42.872;74.622;2023-12-20T08:58:35;1.90;98.60
52799;DHT22;38667;42.872;74.622;2023-12-20T09:01:01;1.90;98.80
52799;DHT22;38667;42.872;74.622;2023-12-20T09:03:27;2.00;97.70
52799;DHT22;38667;42.872;74.622;2023-12-20T09:05:54;2.00;96.50
52799;DHT22;38667;42.872;74.622;2023-12-20T09:08:20;2.00;96.00
52799;DHT22;38667;42.872;74.622;2023-12-20T09:10:46;1.90;95.00
52799;DHT22;38667;42.872;74.622;2023-12-20T09:13:14;1.90;94.30
52799;DHT22;38667;42.872;74.622;2023-12-20T09:15:41;1.90;94.90
52799;DHT22;38667;42.872;74.622;2023-12-20T09:18:07;1.80;93.80
52799;DHT22;38667;42.872;74.622;2023-12-20T09:20:34;1.80;93.80
52799;DHT22;38667;42.872;74.622;2023-12-20T09:23:00;1.80;93.70
52799;DHT22;38667;42.872;74.622;2023-12-20T09:25:27;1.80;93.60
52799;DHT22;38667;42.872;74.622;2023-12-20T09:27:53;1.80;94.00
52799;DHT22;38667;42.872;74.622;2023-12-20T09:30:21;1.80;92.60
52799;DHT22;38667;42.872;74.622;2023-12-20T09:32:48;1.80;92.50
52799;DHT22;38667;42.872;74.622;2023-12-20T09:35:14;1.90;92.60
52799;DHT22;38667;42.872;74.622;2023-12-20T09:37:40;1.90;91.90
52799;DHT22;38667;42.872;74.622;2023-12-20T09:40:10;2.00;91.60
52799;DHT22;38667;42.872;74.622;2023-12-20T09:42:39;1.90;90.80
52799;DHT22;38667;42.872;74.622;2023-12-20T09:45:09;2.00;90.80
52799;DHT22;38667;42.872;74.622;2023-12-20T09:47:37;1.90;89.60
52799;DHT22;38667;42.872;74.622;2023-12-20T09:50:04;2.00;89.50
52799;DHT22;38667;42.872;74.622;2023-12-20T09:52:32;2.00;88.70
52799;DHT22;38667;42.872;74.622;2023-12-20T09:55:00;2.00;88.30
52799;DHT22;38667;42.872;74.622;2023-12-20T09:57:27;2.00;88.00
52799;DHT22;38667;42.872;74.622;2023-12-20T09:59:53;2.00;88.40
52799;DHT22;38667;42.872;74.622;2023-12-20T10:02:22;2.10;88.70
52799;DHT22;38667;42.872;74.622;2023-12-20T10:04:51;2.20;88.50
52799;DHT22;38667;42.872;74.622;2023-12-20T10:07:17;2.30;88.60
52799;DHT22;38667;42.872;74.622;2023-12-20T10:09:44;2.30;88.30
52799;DHT22;38667;42.872;74.622;2023-12-20T10:12:11;2.40;88.00
52799;DHT22;38667;42.872;74.622;2023-12-20T10:14:39;2.30;87.60
52799;DHT22;38667;42.872;74.622;2023-12-20T10:17:05;2.30;87.70
52799;DHT22;38667;42.872;74.622;2023-12-20T10:19:32;2.30;88.20
52799;DHT22;38667;42.872;74.622;2023-12-20T10:22:04;2.40;88.00
52799;DHT22;38667;42.872;74.622;2023-12-20T10:24:31;2.50;88.00
52799;DHT22;38667;42.872;74.622;2023-12-20T10:27:04;2.50;88.00
52799;DHT22;38667;42.872;74.622;2023-12-20T10:29:32;2.50;87.20
52799;DHT22;38667;42.872;74.622;2023-12-20T10:31:59;2.50;86.90
52799;DHT22;38667;42.872;74.622;2023-12-20T10:34:25;2.50;86.60
52799;DHT22;38667;42.872;74.622;2023-12-20T10:36:52;2.40;86.70
52799;DHT22;38667;42.872;74.622;2023-12-20T10:39:21;2.40;86.90
52799;DHT22;38667;42.872;74.622;2023-12-20T10:41:48;2.40;85.90
52799;DHT22;38667;42.872;74.622;2023-12-20T10:44:14;2.40;86.10
52799;DHT22;38667;42.872;74.622;2023-12-20T10:46:41;2.50;86.00
52799;DHT22;38667;42.872;74.622;2023-12-20T10:49:08;2.50;85.80
52799;DHT22;38667;42.872;74.622;2023-12-20T10:51:35;2.60;86.30
52799;DHT22;38667;42.872;74.622;2023-12-20T10:54:03;2.50;85.70
52799;DHT22;38667;42.872;74.622;2023-12-20T10:56:32;2.50;83.30
52799;DHT22;38667;42.872;74.622;2023-12-20T10:59:02;2.40;82.70
52799;DHT22;38667;42.872;74.622;2023-12-20T11:01:29;2.40;82.20
52799;DHT22;38667;42.872;74.622;2023-12-20T11:03:56;2.30;83.20
52799;DHT22;38667;42.872;74.622;2023-12-20T11:06:35;2.20;83.60
52799;DHT22;38667;42.872;74.622;2023-12-20T11:09:10;2.10;83.40
52799;DHT22;38667;42.872;74.622;2023-12-20T11:11:52;2.00;83.40
52799;DHT22;38667;42.872;74.622;2023-12-20T11:14:25;2.00;83.80
52799;DHT22;38667;42.872;74.622;2023-12-20T11:17:06;2.00;83.80
52799;DHT22;38667;42.872;74.622;2023-12-20T11:19:32;1.90;83.70
52799;DHT22;38667;42.872;74.622;2023-12-20T11:22:02;2.00;83.60
52799;DHT22;38667;42.872;74.622;2023-12-20T11:24:31;2.00;82.70
52799;DHT22;38667;42.872;74.622;2023-12-20T11:27:00;2.00;82.80
52799;DHT22;38667;42.872;74.622;2023-12-20T11:29:34;1.90;82.90
52799;DHT22;38667;42.872;74.622;2023-12-20T11:32:02;1.90;82.60
52799;DHT22;38667;42.872;74.622;2023-12-20T11:34:29;1.90;82.50
52799;DHT22;38667;42.872;74.622;2023-12-20T11:37:00;1.90;82.50
52799;DHT22;38667;42.872;74.622;2023-12-20T11:39:28;1.90;83.10
52799;DHT22;38667;42.872;74.622;2023-12-20T11:41:58;1.90;82.20
52799;DHT22;38667;42.872;74.622;2023-12-20T11:44:31;1.90;81.90
52799;DHT22;38667;42.872;74.622;2023-12-20T11:46:57;2.00;81.10
52799;DHT22;38667;42.872;74.622;2023-12-20T11:49:24;2.00;81.20
52799;DHT22;38667;42.872;74.622;2023-12-20T11:51:50;2.00;80.50
52799;DHT22;38667;42.872;74.622;2023-12-20T11:54:16;2.00;79.90
52799;DHT22;38667;42.872;74.622;2023-12-20T11:56:43;2.10;79.90
52799;DHT22;38667;42.872;74.622;2023-12-20T11:59:11;2.10;80.10
52799;DHT22;38667;42.872;74.622;2023-12-20T12:01:37;2.20;79.90
52799;DHT22;38667;42.872;74.622;2023-12-20T12:04:04;2.20;79.90
52799;DHT22;38667;42.872;74.622;2023-12-20T12:06:30;2.20;79.60
52799;DHT22;38667;42.872;74.622;2023-12-20T12:08:56;2.20;78.70
52799;DHT22;38667;42.872;74.622;2023-12-20T12:11:23;2.20;79.50
52799;DHT22;38667;42.872;74.622;2023-12-20T12:13:49;2.20;79.40
52799;DHT22;38667;42.872;74.622;2023-12-20T12:16:20;2.20;76.80
52799;DHT22;38667;42.872;74.622;2023-12-20T12:18:54;2.30;75.40
52799;DHT22;38667;42.872;74.622;2023-12-20T12:21:20;2.30;76.20
52799;DHT22;38667;42.872;74.622;2023-12-20T12:23:47;2.30;76.50
52799;DHT22;38667;42.872;74.622;2023-12-20T12:26:13;2.30;76.20
52799;DHT22;38667;42.872;74.622;2023-12-20T12:28:40;2.30;75.20
52799;DHT22;38667;42.872;74.622;2023-12-20T12:31:07;2.30;75.30
52799;DHT22;38667;42.872;74.622;2023-12-20T12:33:35;2.20;75.30
52799;DHT22;38667;42.872;74.622;2023-12-20T12:36:02;2.30;75.40
52799;DHT22;38667;42.872;74.622;2023-12-20T12:38:28;2.20;75.10
52799;DHT22;38667;42.872;74.622;2023-12-20T12:40:56;2.20;75.10
52799;DHT22;38667;42.872;74.622;2023-12-20T12:43:22;2.30;75.50
52799;DHT22;38667;42.872;74.622;2023-12-20T12:45:49;2.30;76.80
52799;DHT22;38667;42.872;74.622;2023-12-20T12:48:15;2.20;76.30
52799;DHT22;38667;42.872;74.622;2023-12-20T12:50:43;2.20;76.70
52799;DHT22;38667;42.872;74.622;2023-12-20T12:53:09;2.20;77.40
52799;DHT22;38667;42.872;74.622;2023-12-20T12:55:36;2.20;77.10
52799;DHT22;38667;42.872;74.622;2023-12-20T12:58:02;2.20;77.10
52799;DHT22;38667;42.872;74.622;2023-12-20T13:00:28;2.10;77.20
52799;DHT22;38667;42.872;74.622;2023-12-20T13:02:55;2.10;76.20
52799;DHT22;38667;42.872;74.622;2023-12-20T13:05:21;2.20;75.90
52799;DHT22;38667;42.872;74.622;2023-12-20T13:07:49;2.30;75.50
52799;DHT22;38667;42.872;74.622;2023-12-20T13:10:16;2.30;73.70
52799;DHT22;38667;42.872;74.622;2023-12-20T13:12:42;2.30;72.60
52799;DHT22;38667;42.872;74.622;2023-12-20T13:15:09;2.30;74.30
52799;DHT22;38667;42.872;74.622;2023-12-20T13:17:35;2.20;74.80
52799;DHT22;38667;42.872;74.622;2023-12-20T13:20:02;2.20;74.50
52799;DHT22;38667;42.872;74.622;2023-12-20T13:22:28;2.20;75.10
52799;DHT22;38667;42.872;74.622;2023-12-20T13:24:56;2.20;75.60
52799;DHT22;38667;42.872;74.622;2023-12-20T13:27:22;2.20;75.30
52799;DHT22;38667;42.872;74.622;2023-12-20T13:29:49;2.10;75.50
52799;DHT22;38667;42.872;74.622;2023-12-20T13:32:16;2.10;76.50
52799;DHT22;38667;42.872;74.622;2023-12-20T13:34:42;2.00;75.50
52799;DHT22;38667;42.872;74.622;2023-12-20T13:37:08;2.00;75.70
52799;DHT22;38667;42.872;74.622;2023-12-20T13:39:35;2.00;76.50
52799;DHT22;38667;42.872;74.622;2023-12-20T13:42:03;1.90;75.80
52799;DHT22;38667;42.872;74.622;2023-12-20T13:44:29;1.90;76.50
52799;DHT22;38667;42.872;74.622;2023-12-20T13:46:56;1.80;78.30
52799;DHT22;38667;42.872;74.622;2023-12-20T13:49:22;1.70;78.90
52799;DHT22;38667;42.872;74.622;2023-12-20T13:51:48;1.70;78.70
52799;DHT22;38667;42.872;74.622;2023-12-20T13:54:15;1.60;79.00
52799;DHT22;38667;42.872;74.622;2023-12-20T13:56:41;1.50;80.00
52799;DHT22;38667;42.872;74.622;2023-12-20T13:59:09;1.50;79.70
52799;DHT22;38667;42.872;74.622;2023-12-20T14:01:35;1.40;80.90
52799;DHT22;38667;42.872;74.622;2023-12-20T14:04:02;1.30;80.50
52799;DHT22;38667;42.872;74.622;2023-12-20T14:06:28;1.40;80.00
52799;DHT22;38667;42.872;74.622;2023-12-20T14:08:54;1.40;80.00
52799;DHT22;38667;42.872;74.622;2023-12-20T14:11:21;1.40;79.90
52799;DHT22;38667;42.872;74.622;2023-12-20T14:13:47;1.40;80.40
52799;DHT22;38667;42.872;74.622;2023-12-20T14:16:15;1.50;80.50
52799;DHT22;38667;42.872;74.622;2023-12-20T14:18:42;1.40;79.90
52799;DHT22;38667;42.872;74.622;2023-12-20T14:21:08;1.40;80.10
52799;DHT22;38667;42.872;74.622;2023-12-20T14:23:34;1.40;80.80
52799;DHT22;38667;42.872;74.622;2023-12-20T14:26:01;1.40;81.00
52799;DHT22;38667;42.872;74.622;2023-12-20T14:28:27;1.40;80.30
52799;DHT22;38667;42.872;74.622;2023-12-20T14:30:54;1.40;79.80
52799;DHT22;38667;42.872;74.622;2023-12-20T14:33:21;1.30;79.80
52799;DHT22;38667;42.872;74.622;2023-12-20T14:35:48;1.20;80.20
52799;DHT22;38667;42.872;74.622;2023-12-20T14:38:14;1.20;80.40
52799;DHT22;38667;42.872;74.622;2023-12-20T14:40:41;1.20;81.00
52799;DHT22;38667;42.872;74.622;2023-12-20T14:43:07;1.20;81.30
52799;DHT22;38667;42.872;74.622;2023-12-20T14:45:34;1.10;81.20
52799;DHT22;38667;42.872;74.622;2023-12-20T14:48:00;1.10;81.60
52799;DHT22;38667;42.872;74.622;2023-12-20T14:50:28;1.20;81.90
52799;DHT22;38667;42.872;74.622;2023-12-20T14:52:54;1.20;81.90
52799;DHT22;38667;42.872;74.622;2023-12-20T14:55:21;1.10;83.00
52799;DHT22;38667;42.872;74.622;2023-12-20T14:57:47;1.00;83.60
52799;DHT22;38667;42.872;74.622;2023-12-20T15:00:14;1.00;84.70
52799;DHT22;38667;42.872;74.622;2023-12-20T15:02:40;0.90;84.00
52799;DHT22;38667;42.872;74.622;2023-12-20T15:05:07;1.00;83.00
52799;DHT22;38667;42.872;74.622;2023-12-20T15:07:35;1.00;83.20
52799;DHT22;38667;42.872;74.622;2023-12-20T15:10:01;1.00;83.50
52799;DHT22;38667;42.872;74.622;2023-12-20T15:12:28;1.00;83.10
52799;DHT22;38667;42.872;74.622;2023-12-20T15:14:54;1.00;83.10
52799;DHT22;38667;42.872;74.622;2023-12-20T15:17:21;0.90;83.30
52799;DHT22;38667;42.872;74.622;2023-12-20T15:19:47;0.90;83.30
52799;DHT22;38667;42.872;74.622;2023-12-20T15:22:13;0.80;83.60
52799;DHT22;38667;42.872;74.622;2023-12-20T15:24:41;0.80;85.30
52799;DHT22;38667;42.872;74.622;2023-12-20T15:27:07;0.70;86.30